sensor_id;sensor_type;location;lat;lon;timestamp;P1;durP1;ratioP1;P2;durP2;ratioP2
49376;SDS011;35253;34.688;33.040;2023-07-02T00:00:57;11.18;;;5.30;;
49376;SDS011;35253;34.688;33.040;2023-07-02T00:03:24;12.95;;;5.80;;
49376;SDS011;35253;34.688;33.040;2023-07-02T00:05:50;9.88;;;5.55;;
49376;SDS011;35253;34.688;33.040;2023-07-02T00:08:19;14.73;;;5.25;;
49376;SDS011;35253;34.688;33.040;2023-07-02T00:10:46;13.80;;;5.25;;
49376;SDS011;35253;34.688;33.040;2023-07-02T00:13:12;10.88;;;5.88;;
49376;SDS011;35253;34.688;33.040;2023-07-02T00:15:38;11.98;;;5.85;;
49376;SDS011;35253;34.688;33.040;2023-07-02T00:18:03;17.40;;;5.80;;
49376;SDS011;35253;34.688;33.040;2023-07-02T00:20:29;10.52;;;4.95;;
49376;SDS011;35253;34.688;33.040;2023-07-02T00:23:00;16.10;;;6.88;;
49376;SDS011;35253;34.688;33.040;2023-07-02T00:25:26;9.10;;;5.95;;
49376;SDS011;35253;34.688;33.040;2023-07-02T00:27:51;14.00;;;6.82;;
49376;SDS011;35253;34.688;33.040;2023-07-02T00:30:17;9.93;;;5.82;;
49376;SDS011;35253;34.688;33.040;2023-07-02T00:32:43;12.50;;;7.10;;
49376;SDS011;35253;34.688;33.040;2023-07-02T00:35:08;10.20;;;5.40;;
49376;SDS011;35253;34.688;33.040;2023-07-02T00:37:34;10.63;;;5.55;;
49376;SDS011;35253;34.688;33.040;2023-07-02T00:40:00;13.70;;;6.60;;
49376;SDS011;35253;34.688;33.040;2023-07-02T00:42:25;10.88;;;5.90;;
49376;SDS011;35253;34.688;33.040;2023-07-02T00:44:54;10.87;;;5.97;;
49376;SDS011;35253;34.688;33.040;2023-07-02T00:47:22;11.07;;;6.70;;
49376;SDS011;35253;34.688;33.040;2023-07-02T00:49:49;11.57;;;7.07;;
49376;SDS011;35253;34.688;33.040;2023-07-02T00:52:16;10.43;;;5.85;;
49376;SDS011;35253;34.688;33.040;2023-07-02T00:54:43;15.50;;;7.32;;
49376;SDS011;35253;34.688;33.040;2023-07-02T00:57:09;13.45;;;8.00;;
49376;SDS011;35253;34.688;33.040;2023-07-02T00:59:35;16.75;;;8.20;;
49376;SDS011;35253;34.688;33.040;2023-07-02T01:02:03;19.17;;;9.80;;
49376;SDS011;35253;34.688;33.040;2023-07-02T01:04:30;14.55;;;8.05;;
49376;SDS011;35253;34.688;33.040;2023-07-02T01:06:56;56.63;;;17.73;;
49376;SDS011;35253;34.688;33.040;2023-07-02T01:09:23;21.00;;;9.38;;
49376;SDS011;35253;34.688;33.040;2023-07-02T01:11:56;12.30;;;6.63;;
49376;SDS011;35253;34.688;33.040;2023-07-02T01:14:43;12.52;;;6.82;;
49376;SDS011;35253;34.688;33.040;2023-07-02T01:17:18;13.02;;;6.35;;
49376;SDS011;35253;34.688;33.040;2023-07-02T01:19:54;7.68;;;5.28;;
49376;SDS011;35253;34.688;33.040;2023-07-02T01:22:24;12.23;;;7.68;;
49376;SDS011;35253;34.688;33.040;2023-07-02T01:24:51;9.40;;;6.30;;
49376;SDS011;35253;34.688;33.040;2023-07-02T01:27:19;14.25;;;6.75;;
49376;SDS011;35253;34.688;33.040;2023-07-02T01:29:45;13.45;;;6.28;;
49376;SDS011;35253;34.688;33.040;2023-07-02T01:32:12;7.05;;;5.72;;
49376;SDS011;35253;34.688;33.040;2023-07-02T01:34:40;8.47;;;6.13;;
49376;SDS011;35253;34.688;33.040;2023-07-02T01:37:09;8.82;;;5.97;;
49376;SDS011;35253;34.688;33.040;2023-07-02T01:39:34;7.63;;;5.72;;
49376;SDS011;35253;34.688;33.040;2023-07-02T01:42:07;12.88;;;5.70;;
49376;SDS011;35253;34.688;33.040;2023-07-02T01:44:35;6.47;;;5.50;;
49376;SDS011;35253;34.688;33.040;2023-07-02T01:47:01;10.10;;;6.07;;
49376;SDS011;35253;34.688;33.040;2023-07-02T01:49:27;7.78;;;5.93;;
49376;SDS011;35253;34.688;33.040;2023-07-02T01:51:53;9.70;;;5.82;;
49376;SDS011;35253;34.688;33.040;2023-07-02T01:54:20;9.23;;;5.75;;
49376;SDS011;35253;34.688;33.040;2023-07-02T01:56:47;8.73;;;5.93;;
49376;SDS011;35253;34.688;33.040;2023-07-02T01:59:13;9.07;;;5.65;;
49376;SDS011;35253;34.688;33.040;2023-07-02T02:01:40;10.27;;;6.10;;
49376;SDS011;35253;34.688;33.040;2023-07-02T02:04:06;6.88;;;6.05;;
49376;SDS011;35253;34.688;33.040;2023-07-02T02:06:32;9.95;;;5.30;;
49376;SDS011;35253;34.688;33.040;2023-07-02T02:08:58;10.05;;;6.57;;
49376;SDS011;35253;34.688;33.040;2023-07-02T02:11:24;8.98;;;6.22;;
49376;SDS011;35253;34.688;33.040;2023-07-02T02:13:50;11.00;;;6.10;;
49376;SDS011;35253;34.688;33.040;2023-07-02T02:16:16;7.03;;;5.63;;
49376;SDS011;35253;34.688;33.040;2023-07-02T02:18:42;8.63;;;5.60;;
49376;SDS011;35253;34.688;33.040;2023-07-02T02:21:07;11.48;;;6.10;;
49376;SDS011;35253;34.688;33.040;2023-07-02T02:23:33;12.15;;;5.93;;
49376;SDS011;35253;34.688;33.040;2023-07-02T02:25:59;6.88;;;5.20;;
49376;SDS011;35253;34.688;33.040;2023-07-02T02:28:24;9.32;;;5.82;;
49376;SDS011;35253;34.688;33.040;2023-07-02T02:30:50;10.68;;;6.18;;
49376;SDS011;35253;34.688;33.040;2023-07-02T02:33:16;7.68;;;5.60;;
49376;SDS011;35253;34.688;33.040;2023-07-02T02:35:41;8.65;;;6.65;;
49376;SDS011;35253;34.688;33.040;2023-07-02T02:38:07;10.90;;;7.15;;
49376;SDS011;35253;34.688;33.040;2023-07-02T02:40:33;9.57;;;7.30;;
49376;SDS011;35253;34.688;33.040;2023-07-02T02:42:59;12.07;;;6.78;;
49376;SDS011;35253;34.688;33.040;2023-07-02T02:45:25;8.52;;;6.97;;
49376;SDS011;35253;34.688;33.040;2023-07-02T02:47:51;9.48;;;6.55;;
49376;SDS011;35253;34.688;33.040;2023-07-02T02:50:16;13.85;;;6.38;;
49376;SDS011;35253;34.688;33.040;2023-07-02T02:52:42;9.13;;;6.20;;
49376;SDS011;35253;34.688;33.040;2023-07-02T02:55:08;7.30;;;6.60;;
49376;SDS011;35253;34.688;33.040;2023-07-02T02:57:35;9.15;;;7.07;;
49376;SDS011;35253;34.688;33.040;2023-07-02T03:00:01;11.52;;;6.15;;
49376;SDS011;35253;34.688;33.040;2023-07-02T03:02:27;10.85;;;7.03;;
49376;SDS011;35253;34.688;33.040;2023-07-02T03:04:53;8.45;;;6.47;;
49376;SDS011;35253;34.688;33.040;2023-07-02T03:07:21;17.20;;;5.97;;
49376;SDS011;35253;34.688;33.040;2023-07-02T03:09:47;8.00;;;5.95;;
49376;SDS011;35253;34.688;33.040;2023-07-02T03:12:12;12.35;;;5.78;;
49376;SDS011;35253;34.688;33.040;2023-07-02T03:14:38;12.52;;;6.80;;
49376;SDS011;35253;34.688;33.040;2023-07-02T03:17:04;11.95;;;6.80;;
49376;SDS011;35253;34.688;33.040;2023-07-02T03:19:29;12.02;;;7.05;;
49376;SDS011;35253;34.688;33.040;2023-07-02T03:21:55;16.25;;;7.70;;
49376;SDS011;35253;34.688;33.040;2023-07-02T03:24:21;15.23;;;6.85;;
49376;SDS011;35253;34.688;33.040;2023-07-02T03:26:46;18.95;;;6.85;;
49376;SDS011;35253;34.688;33.040;2023-07-02T03:29:12;15.27;;;6.40;;
49376;SDS011;35253;34.688;33.040;2023-07-02T03:31:38;18.33;;;7.80;;
49376;SDS011;35253;34.688;33.040;2023-07-02T03:34:07;21.25;;;5.45;;
49376;SDS011;35253;34.688;33.040;2023-07-02T03:36:34;16.63;;;6.35;;
49376;SDS011;35253;34.688;33.040;2023-07-02T03:39:03;26.10;;;7.05;;
49376;SDS011;35253;34.688;33.040;2023-07-02T03:41:30;16.73;;;6.15;;
49376;SDS011;35253;34.688;33.040;2023-07-02T03:43:56;21.08;;;6.97;;
49376;SDS011;35253;34.688;33.040;2023-07-02T03:46:21;17.17;;;6.75;;
49376;SDS011;35253;34.688;33.040;2023-07-02T03:48:47;12.10;;;6.63;;
49376;SDS011;35253;34.688;33.040;2023-07-02T03:51:13;12.82;;;6.45;;
49376;SDS011;35253;34.688;33.040;2023-07-02T03:53:40;20.42;;;6.43;;
49376;SDS011;35253;34.688;33.040;2023-07-02T03:56:06;12.30;;;6.80;;
49376;SDS011;35253;34.688;33.040;2023-07-02T03:58:32;15.80;;;7.57;;
49376;SDS011;35253;34.688;33.040;2023-07-02T04:00:59;15.82;;;6.90;;
49376;SDS011;35253;34.688;33.040;2023-07-02T04:03:25;11.15;;;6.68;;
49376;SDS011;35253;34.688;33.040;2023-07-02T04:05:50;16.25;;;6.68;;
49376;SDS011;35253;34.688;33.040;2023-07-02T04:08:16;15.00;;;7.22;;
49376;SDS011;35253;34.688;33.040;2023-07-02T04:10:43;17.13;;;6.97;;
49376;SDS011;35253;34.688;33.040;2023-07-02T04:13:08;19.08;;;7.20;;
49376;SDS011;35253;34.688;33.040;2023-07-02T04:15:34;15.45;;;6.53;;
49376;SDS011;35253;34.688;33.040;2023-07-02T04:18:00;14.40;;;6.13;;
49376;SDS011;35253;34.688;33.040;2023-07-02T04:20:26;12.23;;;6.30;;
49376;SDS011;35253;34.688;33.040;2023-07-02T04:22:54;11.70;;;6.32;;
49376;SDS011;35253;34.688;33.040;2023-07-02T04:25:20;16.08;;;5.88;;
49376;SDS011;35253;34.688;33.040;2023-07-02T04:27:46;12.70;;;5.72;;
49376;SDS011;35253;34.688;33.040;2023-07-02T04:30:12;16.30;;;6.00;;
49376;SDS011;35253;34.688;33.040;2023-07-02T04:32:38;15.38;;;5.78;;
49376;SDS011;35253;34.688;33.040;2023-07-02T04:35:07;11.88;;;5.50;;
49376;SDS011;35253;34.688;33.040;2023-07-02T04:37:34;16.13;;;5.57;;
49376;SDS011;35253;34.688;33.040;2023-07-02T04:40:00;15.10;;;5.93;;
49376;SDS011;35253;34.688;33.040;2023-07-02T04:42:27;17.33;;;5.90;;
49376;SDS011;35253;34.688;33.040;2023-07-02T04:44:53;11.95;;;5.57;;
49376;SDS011;35253;34.688;33.040;2023-07-02T04:47:20;12.45;;;6.95;;
49376;SDS011;35253;34.688;33.040;2023-07-02T04:49:45;12.25;;;5.07;;
49376;SDS011;35253;34.688;33.040;2023-07-02T04:52:11;19.30;;;6.28;;
49376;SDS011;35253;34.688;33.040;2023-07-02T04:54:37;11.98;;;5.32;;
49376;SDS011;35253;34.688;33.040;2023-07-02T04:57:03;10.38;;;5.63;;
49376;SDS011;35253;34.688;33.040;2023-07-02T04:59:29;10.68;;;5.43;;
49376;SDS011;35253;34.688;33.040;2023-07-02T05:01:55;10.68;;;5.20;;
49376;SDS011;35253;34.688;33.040;2023-07-02T05:04:20;16.17;;;5.80;;
49376;SDS011;35253;34.688;33.040;2023-07-02T05:06:46;16.50;;;5.13;;
49376;SDS011;35253;34.688;33.040;2023-07-02T05:09:12;11.07;;;4.22;;
49376;SDS011;35253;34.688;33.040;2023-07-02T05:11:37;10.98;;;3.60;;
49376;SDS011;35253;34.688;33.040;2023-07-02T05:14:03;11.43;;;4.38;;
49376;SDS011;35253;34.688;33.040;2023-07-02T05:16:29;10.15;;;4.32;;
49376;SDS011;35253;34.688;33.040;2023-07-02T05:18:55;9.43;;;4.38;;
49376;SDS011;35253;34.688;33.040;2023-07-02T05:21:21;10.75;;;4.70;;
49376;SDS011;35253;34.688;33.040;2023-07-02T05:23:47;13.75;;;4.65;;
49376;SDS011;35253;34.688;33.040;2023-07-02T05:26:13;13.93;;;5.30;;
49376;SDS011;35253;34.688;33.040;2023-07-02T05:28:39;9.43;;;4.50;;
49376;SDS011;35253;34.688;33.040;2023-07-02T05:31:05;12.63;;;4.22;;
49376;SDS011;35253;34.688;33.040;2023-07-02T05:33:30;12.63;;;5.70;;
49376;SDS011;35253;34.688;33.040;2023-07-02T05:35:58;10.90;;;4.55;;
49376;SDS011;35253;34.688;33.040;2023-07-02T05:38:24;11.73;;;5.03;;
49376;SDS011;35253;34.688;33.040;2023-07-02T05:40:50;8.02;;;5.10;;
49376;SDS011;35253;34.688;33.040;2023-07-02T05:43:16;13.43;;;4.43;;
49376;SDS011;35253;34.688;33.040;2023-07-02T05:45:41;8.88;;;4.70;;
49376;SDS011;35253;34.688;33.040;2023-07-02T05:48:07;11.23;;;5.40;;
49376;SDS011;35253;34.688;33.040;2023-07-02T05:50:33;12.82;;;5.30;;
49376;SDS011;35253;34.688;33.040;2023-07-02T05:52:58;15.52;;;4.75;;
49376;SDS011;35253;34.688;33.040;2023-07-02T05:55:24;9.40;;;4.22;;
49376;SDS011;35253;34.688;33.040;2023-07-02T05:57:50;11.32;;;4.95;;
49376;SDS011;35253;34.688;33.040;2023-07-02T06:00:16;9.50;;;4.45;;
49376;SDS011;35253;34.688;33.040;2023-07-02T06:02:42;10.57;;;4.45;;
49376;SDS011;35253;34.688;33.040;2023-07-02T06:05:07;14.13;;;5.28;;
49376;SDS011;35253;34.688;33.040;2023-07-02T06:07:33;10.30;;;4.93;;
49376;SDS011;35253;34.688;33.040;2023-07-02T06:09:59;13.95;;;6.65;;
49376;SDS011;35253;34.688;33.040;2023-07-02T06:12:25;18.10;;;5.88;;
49376;SDS011;35253;34.688;33.040;2023-07-02T06:14:50;14.00;;;5.68;;
49376;SDS011;35253;34.688;33.040;2023-07-02T06:17:16;12.73;;;6.05;;
49376;SDS011;35253;34.688;33.040;2023-07-02T06:19:42;9.27;;;4.75;;
49376;SDS011;35253;34.688;33.040;2023-07-02T06:22:09;13.27;;;4.85;;
49376;SDS011;35253;34.688;33.040;2023-07-02T06:24:35;16.88;;;5.40;;
49376;SDS011;35253;34.688;33.040;2023-07-02T06:27:01;10.25;;;5.40;;
49376;SDS011;35253;34.688;33.040;2023-07-02T06:29:27;13.32;;;6.05;;
49376;SDS011;35253;34.688;33.040;2023-07-02T06:31:54;18.13;;;5.47;;
49376;SDS011;35253;34.688;33.040;2023-07-02T06:34:20;13.73;;;5.85;;
49376;SDS011;35253;34.688;33.040;2023-07-02T06:36:45;14.90;;;5.07;;
49376;SDS011;35253;34.688;33.040;2023-07-02T06:39:11;14.77;;;6.75;;
49376;SDS011;35253;34.688;33.040;2023-07-02T06:41:37;16.55;;;6.07;;
49376;SDS011;35253;34.688;33.040;2023-07-02T06:44:02;16.27;;;7.13;;
49376;SDS011;35253;34.688;33.040;2023-07-02T06:46:29;13.50;;;7.47;;
49376;SDS011;35253;34.688;33.040;2023-07-02T06:48:55;17.30;;;6.97;;
49376;SDS011;35253;34.688;33.040;2023-07-02T06:51:21;14.18;;;7.07;;
49376;SDS011;35253;34.688;33.040;2023-07-02T06:53:47;15.15;;;5.88;;
49376;SDS011;35253;34.688;33.040;2023-07-02T06:56:13;7.53;;;6.00;;
49376;SDS011;35253;34.688;33.040;2023-07-02T06:58:39;15.82;;;8.48;;
49376;SDS011;35253;34.688;33.040;2023-07-02T07:01:07;14.30;;;6.60;;
49376;SDS011;35253;34.688;33.040;2023-07-02T07:03:34;15.63;;;7.20;;
49376;SDS011;35253;34.688;33.040;2023-07-02T07:06:00;14.60;;;6.45;;
49376;SDS011;35253;34.688;33.040;2023-07-02T07:08:26;12.38;;;5.95;;
49376;SDS011;35253;34.688;33.040;2023-07-02T07:10:51;7.63;;;5.40;;
49376;SDS011;35253;34.688;33.040;2023-07-02T07:13:17;8.23;;;5.07;;
49376;SDS011;35253;34.688;33.040;2023-07-02T07:15:43;9.07;;;5.57;;
49376;SDS011;35253;34.688;33.040;2023-07-02T07:18:09;9.05;;;4.32;;
49376;SDS011;35253;34.688;33.040;2023-07-02T07:20:35;14.55;;;6.38;;
49376;SDS011;35253;34.688;33.040;2023-07-02T07:23:05;11.63;;;6.45;;
49376;SDS011;35253;34.688;33.040;2023-07-02T07:27:57;12.20;;;5.55;;
49376;SDS011;35253;34.688;33.040;2023-07-02T07:30:24;12.73;;;5.65;;
49376;SDS011;35253;34.688;33.040;2023-07-02T07:32:50;10.30;;;5.40;;
49376;SDS011;35253;34.688;33.040;2023-07-02T07:35:16;14.02;;;6.07;;
49376;SDS011;35253;34.688;33.040;2023-07-02T07:37:43;9.75;;;4.68;;
49376;SDS011;35253;34.688;33.040;2023-07-02T07:40:09;14.25;;;6.63;;
49376;SDS011;35253;34.688;33.040;2023-07-02T07:42:36;10.40;;;4.88;;
49376;SDS011;35253;34.688;33.040;2023-07-02T07:45:02;9.65;;;4.72;;
49376;SDS011;35253;34.688;33.040;2023-07-02T07:47:29;9.55;;;5.53;;
49376;SDS011;35253;34.688;33.040;2023-07-02T07:49:54;15.13;;;5.57;;
49376;SDS011;35253;34.688;33.040;2023-07-02T07:52:20;9.10;;;4.53;;
49376;SDS011;35253;34.688;33.040;2023-07-02T07:54:46;10.38;;;4.80;;
49376;SDS011;35253;34.688;33.040;2023-07-02T07:57:12;12.50;;;5.82;;
49376;SDS011;35253;34.688;33.040;2023-07-02T07:59:38;13.45;;;5.07;;
49376;SDS011;35253;34.688;33.040;2023-07-02T08:02:03;16.35;;;5.93;;
49376;SDS011;35253;34.688;33.040;2023-07-02T08:04:29;8.80;;;4.30;;
49376;SDS011;35253;34.688;33.040;2023-07-02T08:06:55;12.32;;;4.40;;
49376;SDS011;35253;34.688;33.040;2023-07-02T08:09:22;11.43;;;5.13;;
49376;SDS011;35253;34.688;33.040;2023-07-02T08:11:49;12.40;;;5.13;;
49376;SDS011;35253;34.688;33.040;2023-07-02T08:14:16;12.20;;;6.07;;
49376;SDS011;35253;34.688;33.040;2023-07-02T08:16:43;12.90;;;6.25;;
49376;SDS011;35253;34.688;33.040;2023-07-02T08:19:09;8.55;;;5.40;;
49376;SDS011;35253;34.688;33.040;2023-07-02T08:21:35;6.85;;;4.25;;
49376;SDS011;35253;34.688;33.040;2023-07-02T08:24:00;17.13;;;6.90;;
49376;SDS011;35253;34.688;33.040;2023-07-02T08:26:26;8.88;;;4.07;;
49376;SDS011;35253;34.688;33.040;2023-07-02T08:28:52;7.50;;;4.28;;
49376;SDS011;35253;34.688;33.040;2023-07-02T08:31:18;12.77;;;5.15;;
49376;SDS011;35253;34.688;33.040;2023-07-02T08:33:43;13.10;;;5.72;;
49376;SDS011;35253;34.688;33.040;2023-07-02T08:36:09;7.20;;;4.63;;
49376;SDS011;35253;34.688;33.040;2023-07-02T08:38:35;11.38;;;5.30;;
49376;SDS011;35253;34.688;33.040;2023-07-02T08:41:00;6.97;;;3.80;;
49376;SDS011;35253;34.688;33.040;2023-07-02T08:43:26;8.43;;;4.00;;
49376;SDS011;35253;34.688;33.040;2023-07-02T08:45:54;8.68;;;4.72;;
49376;SDS011;35253;34.688;33.040;2023-07-02T08:48:20;8.55;;;4.22;;
49376;SDS011;35253;34.688;33.040;2023-07-02T08:50:49;11.02;;;4.55;;
49376;SDS011;35253;34.688;33.040;2023-07-02T08:53:15;6.68;;;4.22;;
49376;SDS011;35253;34.688;33.040;2023-07-02T08:55:41;12.07;;;5.35;;
49376;SDS011;35253;34.688;33.040;2023-07-02T08:58:07;10.70;;;4.65;;
49376;SDS011;35253;34.688;33.040;2023-07-02T09:00:33;9.90;;;4.70;;
49376;SDS011;35253;34.688;33.040;2023-07-02T09:03:12;9.18;;;4.25;;
49376;SDS011;35253;34.688;33.040;2023-07-02T09:05:49;11.07;;;4.28;;
49376;SDS011;35253;34.688;33.040;2023-07-02T09:08:23;9.35;;;4.38;;
49376;SDS011;35253;34.688;33.040;2023-07-02T09:10:53;9.05;;;4.78;;
49376;SDS011;35253;34.688;33.040;2023-07-02T09:13:19;12.25;;;5.38;;
49376;SDS011;35253;34.688;33.040;2023-07-02T09:15:45;7.30;;;4.53;;
49376;SDS011;35253;34.688;33.040;2023-07-02T09:18:28;9.32;;;4.38;;
49376;SDS011;35253;34.688;33.040;2023-07-02T09:20:54;8.95;;;4.75;;
49376;SDS011;35253;34.688;33.040;2023-07-02T09:23:20;11.90;;;5.20;;
49376;SDS011;35253;34.688;33.040;2023-07-02T09:25:46;10.13;;;6.68;;
49376;SDS011;35253;34.688;33.040;2023-07-02T09:28:19;11.13;;;5.97;;
49376;SDS011;35253;34.688;33.040;2023-07-02T09:30:56;9.77;;;5.70;;
49376;SDS011;35253;34.688;33.040;2023-07-02T09:33:23;10.70;;;5.18;;
49376;SDS011;35253;34.688;33.040;2023-07-02T09:35:49;10.60;;;5.20;;
49376;SDS011;35253;34.688;33.040;2023-07-02T09:38:17;11.55;;;5.85;;
49376;SDS011;35253;34.688;33.040;2023-07-02T09:40:47;13.40;;;5.95;;
49376;SDS011;35253;34.688;33.040;2023-07-02T09:43:17;9.35;;;5.70;;
49376;SDS011;35253;34.688;33.040;2023-07-02T09:45:47;15.15;;;9.60;;
49376;SDS011;35253;34.688;33.040;2023-07-02T09:48:16;16.90;;;9.32;;
49376;SDS011;35253;34.688;33.040;2023-07-02T09:50:43;8.05;;;6.18;;
49376;SDS011;35253;34.688;33.040;2023-07-02T09:53:10;14.27;;;5.28;;
49376;SDS011;35253;34.688;33.040;2023-07-02T09:55:37;11.02;;;7.63;;
49376;SDS011;35253;34.688;33.040;2023-07-02T09:58:05;9.85;;;5.75;;
49376;SDS011;35253;34.688;33.040;2023-07-02T10:00:31;9.77;;;5.53;;
49376;SDS011;35253;34.688;33.040;2023-07-02T10:02:57;12.35;;;6.03;;
49376;SDS011;35253;34.688;33.040;2023-07-02T10:07:58;6.25;;;4.20;;
49376;SDS011;35253;34.688;33.040;2023-07-02T10:10:36;20.83;;;13.23;;
49376;SDS011;35253;34.688;33.040;2023-07-02T10:13:02;12.70;;;7.05;;
49376;SDS011;35253;34.688;33.040;2023-07-02T10:15:28;9.23;;;5.10;;
49376;SDS011;35253;34.688;33.040;2023-07-02T10:17:55;11.57;;;7.15;;
49376;SDS011;35253;34.688;33.040;2023-07-02T10:23:20;12.02;;;5.53;;
49376;SDS011;35253;34.688;33.040;2023-07-02T10:26:16;7.40;;;4.47;;
49376;SDS011;35253;34.688;33.040;2023-07-02T10:28:55;10.35;;;6.88;;
49376;SDS011;35253;34.688;33.040;2023-07-02T10:31:22;6.82;;;5.13;;
49376;SDS011;35253;34.688;33.040;2023-07-02T10:33:47;6.90;;;4.43;;
49376;SDS011;35253;34.688;33.040;2023-07-02T10:36:25;12.20;;;5.85;;
49376;SDS011;35253;34.688;33.040;2023-07-02T10:38:51;11.48;;;6.18;;
49376;SDS011;35253;34.688;33.040;2023-07-02T10:41:26;9.43;;;5.70;;
49376;SDS011;35253;34.688;33.040;2023-07-02T10:44:04;9.00;;;6.00;;
49376;SDS011;35253;34.688;33.040;2023-07-02T10:46:45;12.35;;;6.60;;
49376;SDS011;35253;34.688;33.040;2023-07-02T10:49:12;9.73;;;7.85;;
49376;SDS011;35253;34.688;33.040;2023-07-02T10:51:38;8.45;;;5.40;;
49376;SDS011;35253;34.688;33.040;2023-07-02T10:54:04;11.63;;;6.47;;
49376;SDS011;35253;34.688;33.040;2023-07-02T10:56:30;10.55;;;5.03;;
49376;SDS011;35253;34.688;33.040;2023-07-02T10:58:57;9.10;;;3.83;;
49376;SDS011;35253;34.688;33.040;2023-07-02T11:01:30;5.72;;;4.70;;
49376;SDS011;35253;34.688;33.040;2023-07-02T11:06:29;10.98;;;6.63;;
49376;SDS011;35253;34.688;33.040;2023-07-02T11:08:57;13.93;;;8.05;;
49376;SDS011;35253;34.688;33.040;2023-07-02T11:11:24;9.70;;;6.93;;
49376;SDS011;35253;34.688;33.040;2023-07-02T11:13:50;11.55;;;6.97;;
49376;SDS011;35253;34.688;33.040;2023-07-02T11:16:26;8.00;;;6.53;;
49376;SDS011;35253;34.688;33.040;2023-07-02T11:19:05;10.05;;;7.53;;
49376;SDS011;35253;34.688;33.040;2023-07-02T11:21:33;10.45;;;5.63;;
49376;SDS011;35253;34.688;33.040;2023-07-02T11:24:25;10.60;;;7.40;;
49376;SDS011;35253;34.688;33.040;2023-07-02T11:26:54;12.35;;;7.18;;
49376;SDS011;35253;34.688;33.040;2023-07-02T11:29:20;10.40;;;7.88;;
49376;SDS011;35253;34.688;33.040;2023-07-02T11:31:46;6.72;;;5.97;;
49376;SDS011;35253;34.688;33.040;2023-07-02T11:34:15;8.98;;;7.70;;
49376;SDS011;35253;34.688;33.040;2023-07-02T11:36:43;10.32;;;7.70;;
49376;SDS011;35253;34.688;33.040;2023-07-02T11:39:09;8.60;;;5.88;;
49376;SDS011;35253;34.688;33.040;2023-07-02T11:41:38;6.72;;;5.13;;
49376;SDS011;35253;34.688;33.040;2023-07-02T11:44:04;10.27;;;5.43;;
49376;SDS011;35253;34.688;33.040;2023-07-02T11:46:30;7.18;;;5.68;;
49376;SDS011;35253;34.688;33.040;2023-07-02T11:48:56;9.55;;;5.32;;
49376;SDS011;35253;34.688;33.040;2023-07-02T11:51:21;10.48;;;5.70;;
49376;SDS011;35253;34.688;33.040;2023-07-02T11:53:47;7.18;;;5.10;;
49376;SDS011;35253;34.688;33.040;2023-07-02T11:56:13;9.65;;;5.00;;
49376;SDS011;35253;34.688;33.040;2023-07-02T11:58:39;9.57;;;5.03;;
49376;SDS011;35253;34.688;33.040;2023-07-02T12:01:06;8.45;;;5.88;;
49376;SDS011;35253;34.688;33.040;2023-07-02T12:03:31;11.05;;;5.35;;
49376;SDS011;35253;34.688;33.040;2023-07-02T12:05:57;9.05;;;5.25;;
49376;SDS011;35253;34.688;33.040;2023-07-02T12:08:23;6.95;;;4.55;;
49376;SDS011;35253;34.688;33.040;2023-07-02T12:10:48;6.60;;;4.97;;
49376;SDS011;35253;34.688;33.040;2023-07-02T12:13:14;9.50;;;5.88;;
49376;SDS011;35253;34.688;33.040;2023-07-02T12:15:40;8.70;;;6.20;;
49376;SDS011;35253;34.688;33.040;2023-07-02T12:18:06;8.73;;;5.28;;
49376;SDS011;35253;34.688;33.040;2023-07-02T12:20:32;8.43;;;5.45;;
49376;SDS011;35253;34.688;33.040;2023-07-02T12:22:57;8.90;;;4.80;;
49376;SDS011;35253;34.688;33.040;2023-07-02T12:25:23;9.88;;;6.07;;
49376;SDS011;35253;34.688;33.040;2023-07-02T12:27:49;11.38;;;5.28;;
49376;SDS011;35253;34.688;33.040;2023-07-02T12:30:15;11.18;;;5.20;;
49376;SDS011;35253;34.688;33.040;2023-07-02T12:32:42;7.25;;;5.00;;
49376;SDS011;35253;34.688;33.040;2023-07-02T12:35:09;12.05;;;5.97;;
49376;SDS011;35253;34.688;33.040;2023-07-02T12:37:42;6.50;;;4.30;;
49376;SDS011;35253;34.688;33.040;2023-07-02T12:40:09;11.77;;;5.72;;
49376;SDS011;35253;34.688;33.040;2023-07-02T12:42:35;10.88;;;5.60;;
49376;SDS011;35253;34.688;33.040;2023-07-02T12:45:00;10.27;;;4.75;;
49376;SDS011;35253;34.688;33.040;2023-07-02T12:47:26;12.02;;;5.60;;
49376;SDS011;35253;34.688;33.040;2023-07-02T12:49:52;12.82;;;5.72;;
49376;SDS011;35253;34.688;33.040;2023-07-02T12:52:17;8.00;;;5.38;;
49376;SDS011;35253;34.688;33.040;2023-07-02T12:54:43;15.05;;;8.05;;
49376;SDS011;35253;34.688;33.040;2023-07-02T12:57:09;10.23;;;4.63;;
49376;SDS011;35253;34.688;33.040;2023-07-02T12:59:35;13.07;;;6.45;;
49376;SDS011;35253;34.688;33.040;2023-07-02T13:02:00;15.93;;;9.82;;
49376;SDS011;35253;34.688;33.040;2023-07-02T13:04:26;13.57;;;8.45;;
49376;SDS011;35253;34.688;33.040;2023-07-02T13:06:52;13.07;;;6.55;;
49376;SDS011;35253;34.688;33.040;2023-07-02T13:09:18;10.30;;;5.97;;
49376;SDS011;35253;34.688;33.040;2023-07-02T13:11:43;9.27;;;5.68;;
49376;SDS011;35253;34.688;33.040;2023-07-02T13:14:09;15.65;;;8.40;;
49376;SDS011;35253;34.688;33.040;2023-07-02T13:16:35;9.27;;;5.97;;
49376;SDS011;35253;34.688;33.040;2023-07-02T13:19:01;15.13;;;7.35;;
49376;SDS011;35253;34.688;33.040;2023-07-02T13:21:27;8.45;;;6.82;;
49376;SDS011;35253;34.688;33.040;2023-07-02T13:23:53;9.00;;;6.80;;
49376;SDS011;35253;34.688;33.040;2023-07-02T13:26:19;9.02;;;7.63;;
49376;SDS011;35253;34.688;33.040;2023-07-02T13:28:45;11.13;;;7.88;;
49376;SDS011;35253;34.688;33.040;2023-07-02T13:31:13;11.23;;;7.47;;
49376;SDS011;35253;34.688;33.040;2023-07-02T13:33:39;10.07;;;6.90;;
49376;SDS011;35253;34.688;33.040;2023-07-02T13:36:05;9.57;;;5.97;;
49376;SDS011;35253;34.688;33.040;2023-07-02T13:38:31;11.60;;;8.32;;
49376;SDS011;35253;34.688;33.040;2023-07-02T13:40:57;14.07;;;9.63;;
49376;SDS011;35253;34.688;33.040;2023-07-02T13:43:23;9.80;;;6.82;;
49376;SDS011;35253;34.688;33.040;2023-07-02T13:45:48;12.10;;;7.57;;
49376;SDS011;35253;34.688;33.040;2023-07-02T13:48:14;9.63;;;6.10;;
49376;SDS011;35253;34.688;33.040;2023-07-02T13:50:40;10.10;;;6.30;;
49376;SDS011;35253;34.688;33.040;2023-07-02T13:53:06;11.45;;;6.63;;
49376;SDS011;35253;34.688;33.040;2023-07-02T13:55:33;8.05;;;5.93;;
49376;SDS011;35253;34.688;33.040;2023-07-02T13:57:58;12.80;;;7.28;;
49376;SDS011;35253;34.688;33.040;2023-07-02T14:00:25;8.93;;;6.28;;
49376;SDS011;35253;34.688;33.040;2023-07-02T14:02:51;12.48;;;6.00;;
49376;SDS011;35253;34.688;33.040;2023-07-02T14:05:17;14.98;;;12.70;;
49376;SDS011;35253;34.688;33.040;2023-07-02T14:07:43;10.55;;;6.97;;
49376;SDS011;35253;34.688;33.040;2023-07-02T14:10:09;10.93;;;7.53;;
49376;SDS011;35253;34.688;33.040;2023-07-02T14:12:36;34.58;;;30.42;;
49376;SDS011;35253;34.688;33.040;2023-07-02T14:15:02;131.15;;;116.93;;
49376;SDS011;35253;34.688;33.040;2023-07-02T14:17:28;215.35;;;193.00;;
49376;SDS011;35253;34.688;33.040;2023-07-02T14:19:53;107.05;;;95.93;;
49376;SDS011;35253;34.688;33.040;2023-07-02T14:22:19;101.88;;;91.07;;
49376;SDS011;35253;34.688;33.040;2023-07-02T14:24:45;41.90;;;35.63;;
49376;SDS011;35253;34.688;33.040;2023-07-02T14:27:10;191.88;;;170.15;;
49376;SDS011;35253;34.688;33.040;2023-07-02T14:29:36;109.82;;;96.00;;
49376;SDS011;35253;34.688;33.040;2023-07-02T14:32:02;161.32;;;143.65;;
49376;SDS011;35253;34.688;33.040;2023-07-02T14:34:28;85.40;;;74.78;;